Time;durP1;ratioP1;P1;durP2;ratioP2;P2;SDS_P1;SDS_P2;PMS_P1;PMS_P2;Temp;Humidity;BMP_temperature;BMP_pressure;BME280_temperature;BME280_humidity;BME280_pressure;Samples;Min_cycle;Max_cycle;Signal;HPM_P1;HPM_P2
2024/04/20 00:00:38;;;;;;;1.00;0.90;;;;;;;5.74;64.61;96080.59;107853;1241;98218;-73
2024/04/20 00:03:25;;;;;;;1.10;1.00;;;;;;;5.75;64.57;96082.61;107856;1239;98674;-73
2024/04/20 00:05:51;;;;;;;1.00;0.90;;;;;;;5.75;64.58;96077.16;107860;1249;98391;-73
2024/04/20 00:08:18;;;;;;;1.00;1.00;;;;;;;5.77;64.66;96076.99;107891;1248;98004;-73
2024/04/20 00:10:44;;;;;;;1.00;0.80;;;;;;;5.77;64.62;96076.63;107773;1233;97924;-73
2024/04/20 00:13:10;;;;;;;0.80;0.70;;;;;;;5.76;64.59;96074.98;107813;1238;98332;-73
2024/04/20 00:15:41;;;;;;;1.10;1.00;;;;;;;5.74;64.58;96071.81;107874;1237;97944;-73
2024/04/20 00:18:08;;;;;;;2.10;0.90;;;;;;;5.75;64.82;96074.20;107826;1237;101246;-73
2024/04/20 00:20:34;;;;;;;1.30;1.10;;;;;;;5.74;64.70;96074.73;107852;1246;97838;-73
2024/04/20 00:23:01;;;;;;;1.60;1.40;;;;;;;5.73;64.64;96070.17;107845;1246;98826;-73
2024/04/20 00:25:27;;;;;;;1.50;1.30;;;;;;;5.76;64.71;96068.98;107802;1246;97898;-73
2024/04/20 00:27:53;;;;;;;1.30;1.20;;;;;;;5.76;64.67;96062.54;107947;1243;98824;-74
2024/04/20 00:30:21;;;;;;;2.00;1.40;;;;;;;5.78;64.70;96063.07;107749;1246;99724;-79
2024/04/20 00:32:47;;;;;;;1.40;1.30;;;;;;;5.78;64.89;96064.64;107770;1248;97999;-78
2024/04/20 00:35:17;;;;;;;1.00;0.90;;;;;;;5.78;64.87;96059.96;107898;1235;97877;-78
2024/04/20 00:37:43;;;;;;;1.10;1.00;;;;;;;5.81;64.91;96064.27;107831;1248;103513;-78
2024/04/20 00:40:10;;;;;;;1.80;1.00;;;;;;;5.83;64.93;96067.89;107623;1239;98087;-78
2024/04/20 00:42:36;;;;;;;1.00;1.00;;;;;;;5.82;65.14;96066.41;107803;1238;98070;-77
2024/04/20 00:45:03;;;;;;;1.30;0.90;;;;;;;5.83;65.15;96066.82;107878;1246;98790;-78
2024/04/20 00:47:30;;;;;;;1.30;1.10;;;;;;;5.82;65.04;96062.88;107743;1248;103605;-79
2024/04/20 00:49:56;;;;;;;2.00;1.00;;;;;;;5.82;65.07;96061.75;107837;1247;98003;-79
2024/04/20 00:52:23;;;;;;;0.90;0.90;;;;;;;5.82;65.07;96062.70;107804;1246;98006;-80
2024/04/20 00:54:49;;;;;;;1.20;1.00;;;;;;;5.83;65.05;96065.16;107902;1238;97903;-79
2024/04/20 00:57:16;;;;;;;1.60;1.20;;;;;;;5.82;65.03;96062.13;107823;1246;111016;-79
2024/04/20 00:59:43;;;;;;;1.10;1.00;;;;;;;5.82;65.04;96061.63;107857;1237;98007;-79
2024/04/20 01:02:10;;;;;;;1.20;1.10;;;;;;;5.81;65.05;96059.25;107685;1235;97977;-80
2024/04/20 01:04:37;;;;;;;1.30;1.00;;;;;;;5.78;64.81;96059.85;107840;1242;97904;-80
2024/04/20 01:07:03;;;;;;;1.10;1.00;;;;;;;5.77;64.90;96061.02;107841;1239;99122;-80
2024/04/20 01:09:30;;;;;;;1.60;1.00;;;;;;;5.80;64.83;96063.34;107954;1238;97886;-80
2024/04/20 01:11:56;;;;;;;1.30;1.10;;;;;;;5.83;64.91;96060.06;107837;1237;99622;-80
2024/04/20 01:14:23;;;;;;;1.30;1.00;;;;;;;5.84;64.85;96058.70;107849;1238;98993;-80
2024/04/20 01:16:49;;;;;;;1.90;1.10;;;;;;;5.80;65.04;96052.79;107816;1243;98399;-79
2024/04/20 01:19:19;;;;;;;0.90;0.80;;;;;;;5.78;65.24;96054.98;107909;1235;98567;-79
2024/04/20 01:21:47;;;;;;;1.20;1.10;;;;;;;5.76;65.37;96052.65;107863;1238;99009;-80
2024/04/20 01:24:15;;;;;;;2.40;1.10;;;;;;;5.77;65.28;96048.65;107839;1239;99125;-80
2024/04/20 01:26:42;;;;;;;1.40;1.00;;;;;;;5.77;65.13;96054.34;107722;1234;98386;-79
2024/04/20 01:29:08;;;;;;;1.10;1.00;;;;;;;5.77;65.11;96054.52;107817;1238;98367;-79
2024/04/20 01:31:34;;;;;;;1.30;1.20;;;;;;;5.77;65.28;96055.36;107836;1239;97922;-79
2024/04/20 01:34:01;;;;;;;1.30;1.10;;;;;;;5.78;65.63;96060.11;107845;1234;97896;-79
2024/04/20 01:36:27;;;;;;;1.60;1.10;;;;;;;5.76;65.71;96066.21;107837;1235;98389;-79
2024/04/20 01:38:54;;;;;;;1.50;1.00;;;;;;;5.76;65.80;96063.48;107822;1239;98812;-78
2024/04/20 01:41:20;;;;;;;1.20;1.00;;;;;;;5.73;65.95;96065.73;107980;1235;98810;-79
2024/04/20 01:43:47;;;;;;;2.30;1.30;;;;;;;5.71;66.01;96071.90;107881;1246;97946;-79
2024/04/20 01:46:13;;;;;;;2.30;1.50;;;;;;;5.68;66.17;96072.37;107843;1246;97884;-78
2024/04/20 01:48:39;;;;;;;1.50;1.30;;;;;;;5.65;66.22;96070.66;107807;1239;97901;-73
2024/04/20 01:51:06;;;;;;;2.20;1.80;;;;;;;5.64;66.59;96070.01;107836;1238;98007;-73
2024/04/20 01:53:32;;;;;;;3.00;1.90;;;;;;;5.64;66.97;96073.05;107825;1235;98002;-73
2024/04/20 01:55:58;;;;;;;2.20;1.70;;;;;;;5.64;66.99;96071.98;107789;1239;98589;-73
2024/04/20 01:58:26;;;;;;;1.50;1.40;;;;;;;5.65;67.00;96067.29;107816;1246;99052;-73
2024/04/20 02:00:52;;;;;;;2.20;1.20;;;;;;;5.66;67.48;96069.59;107747;1239;99017;-73
2024/04/20 02:03:19;;;;;;;2.00;1.20;;;;;;;5.63;67.27;96069.52;107498;1243;99129;-73
2024/04/20 02:05:45;;;;;;;1.50;1.30;;;;;;;5.63;67.36;96070.21;107870;1245;98008;-73
2024/04/20 02:08:12;;;;;;;2.10;1.30;;;;;;;5.63;67.75;96069.89;107722;1238;103444;-73
2024/04/20 02:10:38;;;;;;;1.50;1.40;;;;;;;5.60;68.28;96067.55;107792;1234;97887;-73
2024/04/20 02:13:05;;;;;;;1.40;1.30;;;;;;;5.57;68.64;96067.59;107799;1239;97919;-73
2024/04/20 02:15:32;;;;;;;1.80;1.50;;;;;;;5.57;68.94;96063.23;107859;1233;98775;-73
2024/04/20 02:17:58;;;;;;;1.80;1.50;;;;;;;5.55;69.00;96057.77;107849;1234;103755;-73
2024/04/20 02:20:25;;;;;;;1.50;1.40;;;;;;;5.50;69.20;96063.06;107812;1237;97940;-73
2024/04/20 02:22:51;;;;;;;1.50;1.40;;;;;;;5.46;69.43;96061.02;107565;1242;99123;-73
2024/04/20 02:25:18;;;;;;;1.90;1.60;;;;;;;5.46;69.69;96061.75;107900;1239;99246;-73
2024/04/20 02:27:44;;;;;;;1.20;1.10;;;;;;;5.45;69.91;96063.19;107816;1237;102427;-73
2024/04/20 02:30:10;;;;;;;1.30;1.20;;;;;;;5.44;70.18;96066.65;107850;1239;97883;-73
2024/04/20 02:32:37;;;;;;;1.60;1.50;;;;;;;5.39;70.44;96064.77;107564;1238;98484;-73
2024/04/20 02:35:03;;;;;;;1.60;1.50;;;;;;;5.34;70.76;96062.41;107697;1237;97922;-73
2024/04/20 02:37:30;;;;;;;1.70;1.60;;;;;;;5.31;70.99;96069.64;107903;1246;103418;-73
2024/04/20 02:39:57;;;;;;;1.90;1.70;;;;;;;5.26;71.22;96072.16;107885;1239;97864;-73
2024/04/20 02:42:23;;;;;;;2.90;2.00;;;;;;;5.22;71.39;96075.30;107755;1238;97832;-73
2024/04/20 02:44:50;;;;;;;2.30;2.10;;;;;;;5.20;71.48;96072.10;107815;1246;97939;-73
2024/04/20 02:47:16;;;;;;;3.70;2.00;;;;;;;5.19;71.52;96071.16;107956;1248;97900;-79
2024/04/20 02:49:42;;;;;;;4.20;2.30;;;;;;;5.16;71.43;96067.76;107824;1240;101211;-78
2024/04/20 02:52:09;;;;;;;3.40;2.20;;;;;;;5.14;71.10;96068.91;107814;1238;98007;-79
2024/04/20 02:54:35;;;;;;;3.30;2.20;;;;;;;5.14;71.26;96065.98;107858;1244;97967;-79
2024/04/20 02:57:01;;;;;;;3.40;2.70;;;;;;;5.12;71.29;96062.33;107916;1234;98833;-80
2024/04/20 02:59:28;;;;;;;3.00;2.70;;;;;;;5.14;71.59;96067.75;107831;1238;101153;-79
2024/04/20 03:01:54;;;;;;;3.50;2.20;;;;;;;5.17;71.56;96064.66;107834;1246;98006;-73
2024/04/20 03:04:20;;;;;;;2.40;2.20;;;;;;;5.16;71.47;96067.27;107820;1238;98029;-77
2024/04/20 03:06:47;;;;;;;2.90;2.30;;;;;;;5.14;71.61;96067.70;107925;1249;97899;-77
2024/04/20 03:09:14;;;;;;;3.60;3.00;;;;;;;5.10;71.60;96065.52;107633;1246;101232;-77
2024/04/20 03:11:40;;;;;;;3.10;2.20;;;;;;;5.09;71.67;96064.34;107684;1249;97950;-77
2024/04/20 03:14:07;;;;;;;4.10;2.80;;;;;;;5.05;71.83;96065.52;107847;1246;97925;-77
2024/04/20 03:16:33;;;;;;;3.40;2.70;;;;;;;5.00;71.83;96068.36;107746;1240;97902;-79
2024/04/20 03:18:59;;;;;;;3.90;2.40;;;;;;;4.97;71.75;96065.35;107916;1238;97874;-79
2024/04/20 03:21:26;;;;;;;3.00;2.10;;;;;;;4.95;71.88;96068.00;107732;1238;99824;-79
2024/04/20 03:23:52;;;;;;;2.90;2.40;;;;;;;4.93;71.80;96064.67;107827;1239;97987;-80
2024/04/20 03:26:18;;;;;;;2.80;2.40;;;;;;;4.93;71.84;96072.85;107822;1246;98801;-79
2024/04/20 03:28:45;;;;;;;3.50;2.90;;;;;;;4.94;71.95;96074.10;107879;1237;99250;-79
2024/04/20 03:31:11;;;;;;;2.90;2.50;;;;;;;4.92;71.97;96075.71;107768;1239;100276;-79
2024/04/20 03:33:37;;;;;;;3.80;2.70;;;;;;;4.93;72.08;96073.36;107778;1246;98004;-79
2024/04/20 03:36:04;;;;;;;4.80;3.20;;;;;;;4.91;72.35;96074.23;107832;1246;98818;-80
2024/04/20 03:38:32;;;;;;;6.40;3.90;;;;;;;4.93;72.56;96075.38;107953;1239;99012;-79
2024/04/20 03:40:58;;;;;;;7.50;3.70;;;;;;;4.94;72.61;96075.83;107750;1239;98847;-79
2024/04/20 03:43:24;;;;;;;5.90;4.00;;;;;;;4.95;72.55;96078.60;107850;1238;97947;-80
2024/04/20 03:45:54;;;;;;;8.90;4.80;;;;;;;4.94;72.52;96081.83;107824;1238;97906;-73
2024/04/20 03:48:21;;;;;;;6.20;4.00;;;;;;;4.96;72.59;96084.95;107693;1249;193635;-73
2024/04/20 03:50:58;;;;;;;7.20;4.20;;;;;;;4.97;72.63;96085.76;107845;1240;97881;-73
2024/04/20 03:53:24;;;;;;;6.10;3.80;;;;;;;4.97;72.72;96082.69;107839;1239;99860;-73
2024/04/20 03:55:54;;;;;;;4.90;3.20;;;;;;;4.97;72.75;96083.00;107800;1240;98014;-73
2024/04/20 03:58:21;;;;;;;5.30;3.30;;;;;;;4.98;72.69;96082.96;107848;1239;98348;-73
2024/04/20 04:00:47;;;;;;;5.70;4.10;;;;;;;4.98;72.80;96084.24;107915;1238;98067;-73
2024/04/20 04:03:15;;;;;;;4.10;2.80;;;;;;;4.98;72.95;96086.17;107852;1239;98007;-73
2024/04/20 04:05:42;;;;;;;3.20;2.60;;;;;;;4.98;72.94;96082.39;107899;1248;97954;-73
2024/04/20 04:08:08;;;;;;;3.70;2.80;;;;;;;4.98;72.98;96080.45;107787;1239;97979;-73
2024/04/20 04:10:35;;;;;;;5.90;3.80;;;;;;;4.98;73.02;96082.42;107902;1239;98320;-73
2024/04/20 04:13:04;;;;;;;6.50;3.80;;;;;;;4.99;73.02;96083.88;107883;1238;101304;-73
2024/04/20 04:15:31;;;;;;;8.20;4.90;;;;;;;5.01;73.08;96084.52;107865;1239;99935;-73
2024/04/20 04:17:58;;;;;;;13.40;7.70;;;;;;;5.00;73.13;96088.48;107662;1239;99149;-73
2024/04/20 04:20:25;;;;;;;12.30;6.40;;;;;;;5.01;73.26;96091.65;107747;1238;99128;-73
2024/04/20 04:22:51;;;;;;;14.00;8.40;;;;;;;5.01;73.12;96092.60;107813;1242;97947;-73
2024/04/20 04:25:17;;;;;;;20.00;11.90;;;;;;;5.03;73.19;96094.73;107834;1234;97885;-73
2024/04/20 04:27:44;;;;;;;25.50;15.90;;;;;;;5.02;73.23;96092.02;107725;1238;98858;-73
2024/04/20 04:30:10;;;;;;;23.20;14.20;;;;;;;5.03;73.27;96097.37;107782;1246;99052;-73
2024/04/20 04:32:37;;;;;;;19.90;11.80;;;;;;;5.03;73.31;96096.46;107663;1234;97975;-73
2024/04/20 04:35:03;;;;;;;17.40;10.10;;;;;;;5.05;73.52;96097.98;107869;1234;97890;-73
2024/04/20 04:37:30;;;;;;;22.40;15.10;;;;;;;5.06;73.56;96095.15;107759;1248;97910;-73
2024/04/20 04:39:57;;;;;;;21.90;14.20;;;;;;;5.08;73.62;96097.80;107730;1246;97928;-73
2024/04/20 04:42:23;;;;;;;26.10;15.80;;;;;;;5.09;73.89;96100.40;107852;1234;99179;-73
2024/04/20 04:44:49;;;;;;;27.00;17.40;;;;;;;5.11;73.99;96100.10;107839;1246;99127;-73
2024/04/20 04:47:16;;;;;;;26.80;17.10;;;;;;;5.13;74.08;96103.39;107741;1239;97919;-80
2024/04/20 04:49:42;;;;;;;19.30;13.00;;;;;;;5.13;74.12;96106.94;107812;1246;98330;-80
2024/04/20 04:52:09;;;;;;;44.60;27.30;;;;;;;5.15;74.12;96107.88;107846;1239;97872;-80
2024/04/20 04:54:35;;;;;;;45.90;28.50;;;;;;;5.15;74.14;96108.38;107700;1239;97868;-80
2024/04/20 04:57:01;;;;;;;45.00;26.60;;;;;;;5.16;74.28;96109.48;107848;1234;99103;-80
2024/04/20 04:59:28;;;;;;;43.60;24.30;;;;;;;5.18;74.24;96107.50;107743;1239;98473;-77
2024/04/20 05:01:55;;;;;;;37.60;18.60;;;;;;;5.19;74.30;96106.77;107861;1238;98404;-77
2024/04/20 05:04:21;;;;;;;12.60;7.30;;;;;;;5.19;74.26;96108.77;107853;1234;98816;-77
2024/04/20 05:06:48;;;;;;;9.70;5.20;;;;;;;5.19;74.06;96113.43;107838;1246;98008;-77
2024/04/20 05:09:15;;;;;;;12.90;6.40;;;;;;;5.19;74.02;96114.24;107831;1234;98389;-77
2024/04/20 05:11:41;;;;;;;7.50;4.20;;;;;;;5.20;74.04;96118.92;107596;1246;98677;-77
2024/04/20 05:14:08;;;;;;;3.60;2.80;;;;;;;5.20;73.99;96121.10;107590;1243;99841;-77
2024/04/20 05:16:34;;;;;;;5.10;3.10;;;;;;;5.21;74.01;96124.97;107799;1249;97935;-77
2024/04/20 05:19:00;;;;;;;4.00;2.70;;;;;;;5.24;73.95;96126.66;107840;1238;98427;-77
2024/04/20 05:21:26;;;;;;;3.80;2.80;;;;;;;5.25;74.00;96125.96;107802;1234;99046;-77
2024/04/20 05:23:53;;;;;;;4.10;3.00;;;;;;;5.25;74.00;96127.69;107455;1237;99136;-77
2024/04/20 05:26:23;;;;;;;5.80;3.00;;;;;;;5.28;73.95;96131.56;107741;1241;97911;-77
2024/04/20 05:28:50;;;;;;;5.30;4.30;;;;;;;5.32;74.04;96133.14;107848;1237;98404;-77
2024/04/20 05:31:16;;;;;;;5.00;3.50;;;;;;;5.36;74.07;96134.95;107732;1240;97989;-77
2024/04/20 05:33:43;;;;;;;5.10;3.10;;;;;;;5.38;74.00;96138.33;107506;1238;97934;-77
2024/04/20 05:36:09;;;;;;;6.00;4.10;;;;;;;5.40;73.98;96138.65;107537;1237;98011;-77
2024/04/20 05:38:36;;;;;;;6.00;4.70;;;;;;;5.42;74.09;96136.02;107640;1239;97966;-77
2024/04/20 05:41:06;;;;;;;5.90;4.10;;;;;;;5.45;74.15;96137.39;107526;1238;102452;-77
2024/04/20 05:43:33;;;;;;;7.10;5.30;;;;;;;5.50;74.11;96135.33;107619;1239;101193;-77
2024/04/20 05:45:59;;;;;;;7.00;4.50;;;;;;;5.56;74.21;96139.02;107559;1246;98001;-73
2024/04/20 05:48:28;;;;;;;4.40;3.40;;;;;;;5.58;74.27;96140.74;107729;1239;98025;-73
2024/04/20 05:50:54;;;;;;;6.70;4.00;;;;;;;5.61;74.19;96146.58;107811;1240;97902;-73
2024/04/20 05:53:21;;;;;;;6.00;4.20;;;;;;;5.64;74.28;96145.55;107826;1238;98824;-73
2024/04/20 05:55:47;;;;;;;4.90;4.00;;;;;;;5.69;74.38;96147.08;107835;1239;98801;-73
2024/04/20 05:58:13;;;;;;;7.40;4.90;;;;;;;5.76;74.27;96150.85;107767;1234;97895;-73
2024/04/20 06:00:40;;;;;;;6.50;4.70;;;;;;;5.83;74.20;96155.02;107811;1234;97912;-73
2024/04/20 06:03:06;;;;;;;6.60;4.70;;;;;;;5.90;74.10;96160.02;107878;1239;98526;-73
2024/04/20 06:05:33;;;;;;;5.60;4.40;;;;;;;5.95;74.29;96161.23;107858;1246;97902;-73
2024/04/20 06:07:59;;;;;;;5.60;3.80;;;;;;;5.98;74.20;96159.42;107716;1248;98791;-73
2024/04/20 06:10:25;;;;;;;6.00;4.50;;;;;;;6.01;74.10;96158.54;107809;1238;99330;-73
2024/04/20 06:12:52;;;;;;;4.80;3.30;;;;;;;6.07;74.24;96159.73;107804;1241;97928;-73
2024/04/20 06:15:18;;;;;;;4.20;3.10;;;;;;;6.15;74.15;96160.03;107852;1234;99154;-73
2024/04/20 06:17:44;;;;;;;3.40;2.80;;;;;;;6.21;73.75;96159.13;107639;1240;97906;-77
2024/04/20 06:20:11;;;;;;;3.90;3.00;;;;;;;6.25;73.71;96158.50;107798;1238;97886;-76
2024/04/20 06:22:37;;;;;;;4.50;2.90;;;;;;;6.31;73.53;96161.02;107778;1239;97904;-77
2024/04/20 06:25:04;;;;;;;5.30;2.80;;;;;;;6.37;73.40;96162.23;107798;1240;97935;-77
2024/04/20 06:27:34;;;;;;;3.60;3.10;;;;;;;6.43;73.27;96171.34;107600;1243;97973;-77
2024/04/20 06:30:02;;;;;;;5.00;3.60;;;;;;;6.48;73.19;96171.52;107639;1237;98386;-77
2024/04/20 06:32:30;;;;;;;5.30;3.30;;;;;;;6.53;73.05;96173.95;107856;1242;102487;-80
2024/04/20 06:34:56;;;;;;;4.50;3.20;;;;;;;6.58;72.75;96173.10;108876;1237;98811;-80
2024/04/20 06:37:22;;;;;;;3.00;2.60;;;;;;;6.65;72.66;96170.13;107741;1239;97894;-80
2024/04/20 06:39:49;;;;;;;3.50;2.90;;;;;;;6.73;72.65;96171.73;107806;1238;98801;-80
2024/04/20 06:42:15;;;;;;;3.90;3.00;;;;;;;6.81;72.33;96176.12;107874;1241;99125;-80
2024/04/20 06:44:42;;;;;;;3.50;2.80;;;;;;;6.90;71.93;96179.89;107764;1246;100913;-80
2024/04/20 06:47:09;;;;;;;6.30;3.20;;;;;;;6.94;71.35;96179.45;107733;1246;98699;-81
2024/04/20 06:49:35;;;;;;;4.90;2.80;;;;;;;6.96;70.87;96180.55;107515;1237;97912;-80
2024/04/20 06:52:01;;;;;;;5.20;3.50;;;;;;;7.01;70.72;96178.39;107784;1237;97821;-81
2024/04/20 06:54:28;;;;;;;5.70;2.70;;;;;;;7.07;70.65;96187.14;107804;1249;98786;-77
2024/04/20 06:56:56;;;;;;;3.70;3.00;;;;;;;7.14;70.14;96193.69;107753;1246;99007;-77
2024/04/20 06:59:24;;;;;;;3.80;3.00;;;;;;;7.20;69.56;96191.59;107791;1239;97865;-77
2024/04/20 07:01:50;;;;;;;4.60;2.80;;;;;;;7.24;69.53;96196.65;107742;1239;97895;-73
2024/04/20 07:04:16;;;;;;;3.30;2.80;;;;;;;7.28;69.51;96200.09;107829;1248;98790;-73
2024/04/20 07:06:43;;;;;;;3.20;2.50;;;;;;;7.29;69.41;96201.78;107860;1246;99125;-73
2024/04/20 07:09:10;;;;;;;4.00;2.90;;;;;;;7.31;69.49;96203.09;107870;1234;99119;-73
2024/04/20 07:11:36;;;;;;;3.10;2.70;;;;;;;7.35;69.72;96206.66;107843;1249;98411;-73
2024/04/20 07:14:02;;;;;;;4.50;2.60;;;;;;;7.37;69.37;96210.30;107752;1248;97913;-73
2024/04/20 07:16:29;;;;;;;4.60;2.70;;;;;;;7.37;69.24;96214.13;107762;1248;97987;-80
2024/04/20 07:18:55;;;;;;;2.90;2.40;;;;;;;7.34;68.93;96216.29;107869;1246;98801;-81
2024/04/20 07:21:21;;;;;;;4.20;2.60;;;;;;;7.32;68.81;96220.96;107787;1234;98795;-81
2024/04/20 07:23:48;;;;;;;2.60;2.30;;;;;;;7.33;68.82;96224.52;107749;1238;97947;-80
2024/04/20 07:26:14;;;;;;;3.20;2.10;;;;;;;7.31;68.90;96229.94;107812;1239;98578;-80
2024/04/20 07:28:40;;;;;;;2.90;2.20;;;;;;;7.30;68.99;96232.33;107842;1234;97936;-80
2024/04/20 07:31:07;;;;;;;4.50;2.50;;;;;;;7.31;69.05;96226.63;107737;1246;97998;-79
2024/04/20 07:33:33;;;;;;;2.90;2.20;;;;;;;7.37;68.92;96227.77;107894;1239;99124;-73
2024/04/20 07:36:00;;;;;;;3.20;2.10;;;;;;;7.43;68.91;96228.84;107792;1248;97931;-72
2024/04/20 07:38:26;;;;;;;2.70;1.90;;;;;;;7.49;68.48;96228.90;107878;1234;97796;-73
2024/04/20 07:40:52;;;;;;;2.30;1.70;;;;;;;7.50;68.34;96226.90;107821;1244;98790;-72
2024/04/20 07:43:19;;;;;;;2.60;2.40;;;;;;;7.54;68.53;96229.80;107791;1246;99026;-72
2024/04/20 07:45:45;;;;;;;2.90;2.30;;;;;;;7.57;68.33;96219.87;107863;1239;98414;-77
2024/04/20 07:48:11;;;;;;;1.80;1.60;;;;;;;7.59;68.12;96224.36;107840;1248;99122;-77
2024/04/20 07:50:38;;;;;;;2.20;1.70;;;;;;;7.66;68.29;96225.95;107663;1242;98388;-74
2024/04/20 07:53:04;;;;;;;2.30;1.70;;;;;;;7.78;68.00;96223.63;107644;1237;97892;-77
2024/04/20 07:55:31;;;;;;;1.90;1.50;;;;;;;7.92;67.74;96227.81;107797;1239;97897;-77
2024/04/20 07:57:57;;;;;;;2.10;1.80;;;;;;;8.07;67.40;96231.58;107872;1249;97852;-77
2024/04/20 08:00:24;;;;;;;3.80;2.80;;;;;;;8.21;67.32;96228.94;107864;1246;98707;-77
2024/04/20 08:02:50;;;;;;;2.50;2.00;;;;;;;8.39;67.63;96233.29;107858;1238;97902;-80
2024/04/20 08:05:17;;;;;;;2.10;1.90;;;;;;;8.65;67.74;96231.39;107846;1247;98839;-81
2024/04/20 08:07:43;;;;;;;4.80;2.60;;;;;;;8.97;68.05;96231.48;107887;1237;98010;-81
2024/04/20 08:10:10;;;;;;;7.60;3.00;;;;;;;9.35;67.95;96232.29;107786;1247;98322;-81
2024/04/20 08:12:36;;;;;;;5.60;3.10;;;;;;;9.56;67.02;96232.73;107825;1249;99122;-81
2024/04/20 08:15:03;;;;;;;5.40;3.00;;;;;;;9.64;66.96;96230.14;107838;1239;97869;-81
2024/04/20 08:17:29;;;;;;;5.60;3.40;;;;;;;9.70;66.71;96226.34;107828;1235;98582;-81
2024/04/20 08:19:56;;;;;;;4.90;3.30;;;;;;;9.69;66.02;96233.82;107886;1241;97893;-80
2024/04/20 08:22:22;;;;;;;7.40;3.20;;;;;;;9.67;65.89;96229.83;107618;1246;102481;-81
2024/04/20 08:24:48;;;;;;;5.20;2.80;;;;;;;9.66;65.96;96233.63;107535;1246;97939;-81
2024/04/20 08:27:15;;;;;;;3.00;2.40;;;;;;;9.66;65.94;96234.48;107789;1238;97957;-80
2024/04/20 08:29:41;;;;;;;3.10;2.40;;;;;;;9.68;65.90;96242.34;107902;1238;97908;-73
2024/04/20 08:32:08;;;;;;;3.40;2.60;;;;;;;9.74;65.95;96245.89;107751;1248;102075;-77
2024/04/20 08:34:34;;;;;;;2.40;2.10;;;;;;;9.81;65.94;96247.84;107653;1239;98010;-77
2024/04/20 08:37:00;;;;;;;2.90;2.10;;;;;;;9.86;66.01;96244.33;107522;1248;97915;-77
2024/04/20 08:39:27;;;;;;;2.90;2.30;;;;;;;9.88;65.93;96249.71;107909;1243;97969;-77
2024/04/20 08:42:00;;;;;;;2.90;2.30;;;;;;;9.84;65.57;96245.63;107724;1239;103394;-76
2024/04/20 08:44:27;;;;;;;;;;;;;;;9.73;65.08;96250.38;107527;1238;101171;-77
2024/04/20 08:46:54;;;;;;;3.10;2.50;;;;;;;9.62;64.66;96254.27;107677;1239;97921;-73
2024/04/20 08:49:24;;;;;;;5.30;3.30;;;;;;;9.59;65.30;96257.71;107824;1235;97963;-73
2024/04/20 08:51:53;;;;;;;2.80;2.30;;;;;;;9.59;65.76;96257.83;107966;1238;98395;-74
2024/04/20 08:54:22;;;;;;;2.90;2.20;;;;;;;9.59;65.54;96257.34;107698;1239;103055;-73
2024/04/20 08:56:49;;;;;;;4.00;2.50;;;;;;;9.55;65.20;96256.21;107869;1238;100832;-74
2024/04/20 08:59:15;;;;;;;3.20;2.80;;;;;;;9.57;65.17;96262.94;107873;1244;97924;-73
2024/04/20 09:01:42;;;;;;;4.50;2.70;;;;;;;9.60;64.85;96263.38;107834;1241;97889;-73
2024/04/20 09:04:08;;;;;;;2.80;2.10;;;;;;;9.53;64.27;96265.00;107925;1238;97889;-74
2024/04/20 09:06:35;;;;;;;3.80;2.80;;;;;;;9.53;64.22;96266.98;107814;1239;101267;-73
2024/04/20 09:09:03;;;;;;;4.50;3.00;;;;;;;9.49;64.24;96273.75;107821;1248;99278;-81
2024/04/20 09:11:31;;;;;;;5.40;3.50;;;;;;;9.49;64.57;96271.52;107785;1234;99134;-81
2024/04/20 09:13:58;;;;;;;4.30;3.00;;;;;;;9.49;64.32;96275.20;107807;1239;99137;-81
2024/04/20 09:16:26;;;;;;;5.90;3.40;;;;;;;9.51;64.46;96279.95;107918;1246;97906;-82
2024/04/20 09:18:52;;;;;;;10.20;4.90;;;;;;;9.52;64.30;96287.89;107902;1238;97894;-82
2024/04/20 09:21:19;;;;;;;5.10;3.50;;;;;;;9.52;64.17;96288.19;107829;1246;98175;-82
2024/04/20 09:23:45;;;;;;;6.70;4.60;;;;;;;9.53;63.98;96289.04;107701;1238;97897;-81
2024/04/20 09:26:18;;;;;;;5.50;4.00;;;;;;;9.53;64.19;96291.73;107947;1243;98003;-73
2024/04/20 09:28:47;;;;;;;4.90;3.70;;;;;;;9.54;64.26;96293.67;107847;1247;100233;-73
2024/04/20 09:31:13;;;;;;;3.80;3.00;;;;;;;9.58;64.55;96296.59;107841;1246;99807;-73
2024/04/20 09:33:44;;;;;;;4.00;2.50;;;;;;;9.66;64.37;96293.88;107751;1249;97969;-73
2024/04/20 09:36:12;;;;;;;3.30;2.50;;;;;;;9.73;64.06;96293.04;107902;1248;98472;-73
2024/04/20 09:38:39;;;;;;;4.10;2.10;;;;;;;9.80;63.73;96295.98;107902;1238;103356;-74
2024/04/20 09:41:07;;;;;;;2.20;1.50;;;;;;;9.75;62.00;96302.93;107815;1247;99020;-74
2024/04/20 09:43:35;;;;;;;3.70;2.20;;;;;;;9.68;61.31;96300.61;107879;1241;99018;-75
2024/04/20 09:46:04;;;;;;;3.80;2.10;;;;;;;9.70;60.87;96305.56;107880;1240;97949;-73
2024/04/20 09:48:32;;;;;;;1.40;1.10;;;;;;;9.69;60.13;96301.11;107732;1234;98322;-74
2024/04/20 09:51:10;;;;;;;2.50;1.00;;;;;;;9.65;58.75;96303.45;107843;1239;102431;-73
2024/04/20 09:53:40;;;;;;;1.20;0.80;;;;;;;9.62;59.19;96303.43;107864;1237;101201;-73
2024/04/20 09:56:07;;;;;;;1.00;0.80;;;;;;;9.67;59.39;96300.69;107731;1246;98845;-74
2024/04/20 09:58:35;;;;;;;1.10;0.90;;;;;;;9.74;58.83;96295.52;107802;1247;98001;-73
2024/04/20 10:01:02;;;;;;;1.40;1.20;;;;;;;9.84;59.02;96292.25;107825;1242;98305;-74
2024/04/20 10:03:31;;;;;;;3.40;2.10;;;;;;;9.97;59.30;96294.30;107921;1239;97995;-73
2024/04/20 10:05:58;;;;;;;0.70;0.40;;;;;;;10.09;59.03;96295.98;107809;1246;100182;-74
2024/04/20 10:08:26;;;;;;;1.90;0.90;;;;;;;10.16;58.39;96294.82;107830;1246;98120;-74
2024/04/20 10:10:54;;;;;;;2.30;0.90;;;;;;;10.22;58.61;96301.59;107901;1249;98459;-74
2024/04/20 10:13:21;;;;;;;2.40;1.20;;;;;;;10.30;58.46;96300.07;107985;1237;98416;-74
2024/04/20 10:15:53;;;;;;;2.00;1.40;;;;;;;10.39;58.18;96303.58;107830;1234;103375;-82
2024/04/20 10:18:20;;;;;;;1.30;0.60;;;;;;;10.49;57.78;96304.53;107707;1245;100387;-82
2024/04/20 10:20:46;;;;;;;1.90;0.90;;;;;;;10.54;57.63;96306.63;107841;1235;97966;-82
2024/04/20 10:23:15;;;;;;;3.20;1.30;;;;;;;10.59;57.42;96302.59;107763;1238;98001;-83
2024/04/20 10:25:43;;;;;;;2.90;1.00;;;;;;;10.60;57.26;96301.98;107844;1237;97911;-82
2024/04/20 10:28:10;;;;;;;1.50;0.80;;;;;;;10.63;57.30;96305.04;107927;1237;103303;-82
2024/04/20 10:30:37;;;;;;;0.80;0.50;;;;;;;10.65;56.58;96308.77;107867;1238;98458;-77
2024/04/20 10:33:06;;;;;;;0.50;0.50;;;;;;;10.62;55.85;96309.23;107900;1247;97888;-77
2024/04/20 10:35:32;;;;;;;0.60;0.40;;;;;;;10.63;56.01;96308.22;107948;1238;98682;-78
2024/04/20 10:38:07;;;;;;;1.70;0.50;;;;;;;10.67;55.67;96311.92;107834;1239;99282;-78
2024/04/20 10:40:35;;;;;;;1.10;0.80;;;;;;;10.67;55.81;96311.23;107942;1239;102523;-77
2024/04/20 10:43:12;;;;;;;1.10;0.30;;;;;;;10.74;55.76;96314.83;107730;1237;101314;-78
2024/04/20 10:46:18;;;;;;;0.50;0.50;;;;;;;10.84;55.56;96316.82;107855;1235;98823;-79
2024/04/20 10:49:26;;;;;;;0.60;0.30;;;;;;;10.96;55.27;96314.24;107745;1247;99166;-83
2024/04/20 10:52:36;;;;;;;0.40;0.40;;;;;;;11.09;54.42;96312.08;107836;1248;98421;-82
2024/04/20 10:55:53;;;;;;;1.20;0.60;;;;;;;11.19;54.64;96309.95;107893;1238;102060;-84
2024/04/20 10:59:00;;;;;;;1.00;0.60;;;;;;;11.42;54.95;96309.55;107748;1240;101115;-82
2024/04/20 11:01:59;;;;;;;0.90;0.60;;;;;;;11.64;54.86;96307.67;107982;1237;98828;-81
2024/04/20 11:04:38;;;;;;;0.80;0.80;;;;;;;11.76;54.67;96307.36;111245;1234;95723;-79
2024/04/20 11:07:37;;;;;;;1.00;0.60;;;;;;;11.78;54.14;96306.98;111243;1235;95708;-77
2024/04/20 11:10:44;;;;;;;0.50;0.50;;;;;;;11.74;53.11;96314.88;111238;1234;102286;-77
2024/04/20 11:13:20;;;;;;;1.40;0.60;;;;;;;11.69;53.59;96322.24;111235;1235;100232;-79
2024/04/20 11:16:27;;;;;;;1.00;0.90;;;;;;;11.66;53.75;96327.76;110949;1234;99818;-82
2024/04/20 11:19:35;;;;;;;2.00;0.80;;;;;;;11.68;53.86;96328.23;107819;1239;97921;-83
2024/04/20 11:22:41;;;;;;;2.00;1.10;;;;;;;11.80;54.39;96333.16;107954;1235;98458;-83
2024/04/20 11:25:30;;;;;;;7.50;3.50;;;;;;;11.74;54.92;96334.46;107773;1240;103445;-83
2024/04/20 11:28:00;;;;;;;2.30;1.20;;;;;;;11.62;55.13;96335.25;107933;1237;101214;-82
2024/04/20 11:30:47;;;;;;;1.70;1.20;;;;;;;11.54;55.03;96340.54;107847;1240;98357;-83
2024/04/20 11:33:47;;;;;;;1.80;1.30;;;;;;;11.50;55.19;96343.96;107824;1238;97905;-82
2024/04/20 11:36:57;;;;;;;4.60;2.00;;;;;;;11.38;55.19;96356.49;107925;1237;98395;-80